Time;durP1;ratioP1;P1;durP2;ratioP2;P2;SDS_P1;SDS_P2;PMS_P1;PMS_P2;Temp;Humidity;BMP_temperature;BMP_pressure;BME280_temperature;BME280_humidity;BME280_pressure;Samples;Min_cycle;Max_cycle;Signal;HPM_P1;HPM_P2
2021/07/13 00:01:33;;;;;;;15.27;13.95;;;20.20;99.90;;;;;;4982277;28;20084;-41
2021/07/13 00:03:58;;;;;;;15.57;14.27;;;20.20;99.90;;;;;;4993541;28;20042;-43
2021/07/13 00:06:24;;;;;;;17.02;15.52;;;20.20;99.90;;;;;;4993400;28;20022;-42
2021/07/13 00:08:51;;;;;;;15.90;14.60;;;20.10;99.90;;;;;;4992932;28;20014;-42
2021/07/13 00:11:18;;;;;;;16.05;14.65;;;20.00;99.90;;;;;;4994142;28;20034;-43
2021/07/13 00:13:44;;;;;;;15.90;14.50;;;20.00;99.90;;;;;;4994217;28;20048;-43
2021/07/13 00:16:11;;;;;;;16.80;15.30;;;20.00;99.90;;;;;;4993169;28;20101;-42
2021/07/13 00:18:37;;;;;;;14.82;13.50;;;20.00;99.90;;;;;;4994551;28;20556;-42
2021/07/13 00:21:04;;;;;;;17.80;16.17;;;20.00;99.90;;;;;;4994170;28;20070;-41
2021/07/13 00:23:30;;;;;;;18.60;17.10;;;20.00;99.90;;;;;;4993421;28;20041;-43
2021/07/13 00:25:55;;;;;;;18.85;17.20;;;20.00;99.90;;;;;;4993460;28;20093;-43
2021/07/13 00:28:21;;;;;;;20.88;18.98;;;20.00;99.90;;;;;;4993003;28;20458;-43
2021/07/13 00:30:46;;;;;;;21.05;19.15;;;20.00;99.90;;;;;;4991591;28;20104;-43
2021/07/13 00:33:18;;;;;;;16.42;15.02;;;19.90;99.90;;;;;;4993657;28;20467;-43
2021/07/13 00:35:44;;;;;;;20.30;18.50;;;19.90;99.90;;;;;;4993240;28;20019;-42
2021/07/13 00:38:09;;;;;;;21.67;19.60;;;19.90;99.90;;;;;;4992509;28;20038;-43
2021/07/13 00:40:35;;;;;;;20.35;18.35;;;19.90;99.90;;;;;;4992238;28;20029;-44
2021/07/13 00:43:02;;;;;;;21.13;19.20;;;19.90;99.90;;;;;;4992804;28;20072;-44
2021/07/13 00:45:28;;;;;;;21.67;19.70;;;19.80;99.90;;;;;;4992508;28;20046;-43
2021/07/13 00:47:54;;;;;;;19.75;18.05;;;19.90;99.90;;;;;;4992696;28;20438;-45
2021/07/13 00:50:22;;;;;;;21.13;19.23;;;19.90;99.90;;;;;;4992308;28;20061;-45
2021/07/13 00:52:49;;;;;;;21.10;19.20;;;19.90;99.90;;;;;;4992401;28;20077;-44
2021/07/13 00:55:18;;;;;;;20.48;18.55;;;20.00;99.90;;;;;;4992664;28;20361;-42
2021/07/13 00:57:45;;;;;;;20.38;18.48;;;20.00;99.90;;;;;;4991528;28;20432;-43
2021/07/13 01:00:13;;;;;;;18.38;16.65;;;20.00;99.90;;;;;;4992884;28;20030;-43
2021/07/13 01:02:39;;;;;;;18.88;17.15;;;20.00;99.90;;;;;;4992055;28;20026;-42
2021/07/13 01:05:28;;;;;;;19.40;17.70;;;20.00;99.90;;;;;;4992034;28;20421;-43
2021/07/13 01:08:23;;;;;;;20.27;18.27;;;20.00;99.90;;;;;;4979336;28;20038;-41
2021/07/13 01:11:07;;;;;;;19.27;17.48;;;20.00;99.90;;;;;;4992415;28;20076;-41
2021/07/13 01:14:03;;;;;;;18.13;16.42;;;20.00;99.90;;;;;;4992136;28;20038;-43
2021/07/13 01:16:40;;;;;;;17.98;16.17;;;20.10;99.90;;;;;;4981527;28;20058;-43
2021/07/13 01:19:33;;;;;;;17.15;15.55;;;20.00;99.90;;;;;;4992029;28;20034;-43
2021/07/13 01:22:16;;;;;;;15.95;14.38;;;20.10;99.90;;;;;;4992252;28;20038;-43
2021/07/13 01:24:53;;;;;;;16.83;15.13;;;20.10;99.90;;;;;;4992284;28;20100;-42
2021/07/13 01:27:37;;;;;;;16.67;15.18;;;20.10;99.90;;;;;;4991456;28;20015;-43
2021/07/13 01:30:18;;;;;;;19.05;17.25;;;20.20;99.90;;;;;;4992230;28;20092;-44
2021/07/13 01:32:48;;;;;;;19.50;17.67;;;20.10;99.90;;;;;;4991646;28;20041;-43
2021/07/13 01:35:23;;;;;;;19.13;17.40;;;20.10;99.90;;;;;;4992096;28;20098;-43
2021/07/13 01:37:53;;;;;;;18.70;17.02;;;20.10;99.90;;;;;;4991905;28;20030;-43
2021/07/13 01:40:21;;;;;;;19.58;17.77;;;20.10;99.90;;;;;;4991559;28;20073;-42
2021/07/13 01:42:47;;;;;;;20.42;18.48;;;20.10;99.90;;;;;;4991636;28;20030;-43
2021/07/13 01:45:13;;;;;;;19.48;17.67;;;20.10;99.90;;;;;;4991323;28;20030;-43
2021/07/13 01:47:40;;;;;;;20.20;18.10;;;20.10;99.90;;;;;;4991142;28;20030;-42
2021/07/13 01:50:08;;;;;;;18.67;16.98;;;20.10;99.90;;;;;;4990728;28;20492;-43
2021/07/13 01:52:35;;;;;;;18.33;16.63;;;20.10;99.90;;;;;;4990087;28;20080;-43
2021/07/13 01:55:02;;;;;;;17.30;15.80;;;20.20;99.90;;;;;;4991219;28;20113;-43
2021/07/13 01:57:29;;;;;;;18.77;17.08;;;20.10;99.90;;;;;;4991323;28;20065;-42
2021/07/13 01:59:58;;;;;;;18.33;16.60;;;20.20;99.90;;;;;;4991691;28;20373;-43
2021/07/13 02:02:25;;;;;;;17.27;15.65;;;20.10;99.90;;;;;;4990770;28;20076;-43
2021/07/13 02:04:53;;;;;;;17.27;15.68;;;20.10;99.90;;;;;;4991787;28;20045;-43
2021/07/13 02:07:19;;;;;;;17.58;15.90;;;20.10;99.90;;;;;;4991233;28;20059;-44
2021/07/13 02:09:45;;;;;;;17.58;15.98;;;20.10;99.90;;;;;;4991247;28;20021;-43
2021/07/13 02:12:11;;;;;;;15.50;14.10;;;20.10;99.90;;;;;;4991236;28;20121;-42
2021/07/13 02:14:36;;;;;;;16.40;14.80;;;20.20;99.90;;;;;;4989871;28;20169;-43
2021/07/13 02:17:06;;;;;;;15.07;13.68;;;20.10;99.90;;;;;;4991559;28;20474;-42
2021/07/13 02:19:32;;;;;;;14.85;13.40;;;20.10;99.90;;;;;;4990766;28;20105;-41
2021/07/13 02:21:57;;;;;;;14.07;12.73;;;20.10;99.90;;;;;;4990174;28;20440;-42
2021/07/13 02:24:23;;;;;;;14.45;13.15;;;20.10;99.90;;;;;;4990460;28;20070;-42
2021/07/13 02:26:56;;;;;;;13.95;12.75;;;20.10;99.90;;;;;;4991363;28;20026;-42
2021/07/13 02:29:45;;;;;;;14.90;13.57;;;20.10;99.90;;;;;;4990325;28;20035;-40
2021/07/13 02:32:21;;;;;;;15.60;14.13;;;20.10;99.90;;;;;;4990746;28;20473;-42
2021/07/13 02:34:48;;;;;;;14.77;13.27;;;20.10;99.90;;;;;;4991049;28;20015;-39
2021/07/13 02:37:16;;;;;;;14.40;13.10;;;20.20;99.90;;;;;;4990563;28;20034;-42
2021/07/13 02:39:44;;;;;;;14.23;12.93;;;20.10;99.90;;;;;;4990440;28;20027;-43
2021/07/13 02:42:10;;;;;;;14.45;13.05;;;20.10;99.90;;;;;;4990385;28;20073;-43
2021/07/13 02:44:37;;;;;;;14.80;13.40;;;20.20;99.90;;;;;;4988961;28;20390;-42
2021/07/13 02:47:11;;;;;;;15.18;13.77;;;20.20;99.90;;;;;;4990482;28;20026;-40
2021/07/13 02:49:45;;;;;;;14.27;12.98;;;20.20;99.90;;;;;;4990187;28;20026;-42
2021/07/13 02:52:17;;;;;;;14.50;13.13;;;20.30;99.90;;;;;;4988667;28;20097;-43
2021/07/13 02:54:44;;;;;;;16.20;14.70;;;20.30;99.90;;;;;;4989195;28;20860;-43
2021/07/13 02:57:11;;;;;;;15.82;14.43;;;20.30;99.90;;;;;;4990655;28;20034;-43
2021/07/13 02:59:37;;;;;;;15.30;13.90;;;20.30;99.90;;;;;;4990065;28;20113;-42
2021/07/13 03:02:04;;;;;;;15.50;14.05;;;20.30;99.90;;;;;;4990783;28;20022;-42
2021/07/13 03:04:29;;;;;;;15.23;13.80;;;20.30;99.90;;;;;;4988706;28;20038;-42
2021/07/13 03:06:56;;;;;;;14.65;13.32;;;20.30;99.90;;;;;;4989163;28;20027;-42
2021/07/13 03:09:22;;;;;;;15.10;13.63;;;20.20;99.90;;;;;;4989738;28;20034;-41
2021/07/13 03:11:48;;;;;;;17.08;15.38;;;20.20;99.90;;;;;;4989380;28;20049;-43
2021/07/13 03:14:17;;;;;;;15.77;14.30;;;20.30;99.90;;;;;;4989799;28;20042;-42
2021/07/13 03:16:43;;;;;;;15.02;13.57;;;20.20;99.90;;;;;;4989469;28;20021;-41
2021/07/13 03:19:11;;;;;;;14.05;12.85;;;20.30;99.90;;;;;;4989291;28;20088;-42
2021/07/13 03:21:42;;;;;;;15.25;13.85;;;20.30;99.90;;;;;;4988396;28;20088;-42
2021/07/13 03:24:09;;;;;;;14.57;13.18;;;20.30;99.90;;;;;;4988901;28;20085;-41
2021/07/13 03:26:39;;;;;;;14.85;13.45;;;20.30;99.90;;;;;;4988405;28;20488;-42
2021/07/13 03:29:06;;;;;;;14.02;12.73;;;20.30;99.90;;;;;;4989785;28;20030;-42
2021/07/13 03:31:32;;;;;;;16.30;14.60;;;20.20;99.90;;;;;;4989105;28;20026;-43
2021/07/13 03:34:01;;;;;;;15.98;14.48;;;20.20;99.90;;;;;;4988673;28;20390;-42
2021/07/13 03:36:27;;;;;;;14.60;13.20;;;20.30;99.90;;;;;;4989014;28;20018;-42
2021/07/13 03:38:54;;;;;;;14.63;13.32;;;20.30;99.90;;;;;;4989835;28;20482;-43
2021/07/13 03:41:19;;;;;;;14.23;12.82;;;20.30;99.90;;;;;;4989492;28;20473;-40
2021/07/13 03:43:48;;;;;;;15.00;13.70;;;20.30;99.90;;;;;;4989530;28;20141;-43
2021/07/13 03:46:14;;;;;;;14.85;13.45;;;20.20;99.90;;;;;;4989562;28;20034;-41
2021/07/13 03:48:45;;;;;;;15.38;13.88;;;20.20;99.90;;;;;;4988991;28;20025;-43
2021/07/13 03:51:21;;;;;;;15.13;13.73;;;20.20;99.90;;;;;;4990013;28;20108;-40
2021/07/13 03:53:47;;;;;;;15.07;13.68;;;20.10;99.90;;;;;;4988473;28;20046;-42
2021/07/13 03:56:12;;;;;;;14.90;13.50;;;20.10;99.90;;;;;;4989060;28;20117;-43
2021/07/13 03:58:38;;;;;;;15.30;13.90;;;20.10;99.90;;;;;;4988970;28;20538;-43
2021/07/13 04:01:03;;;;;;;15.73;14.23;;;20.10;99.90;;;;;;4989657;28;20097;-42
2021/07/13 04:03:29;;;;;;;17.20;15.60;;;20.10;99.90;;;;;;4988949;28;20097;-42
2021/07/13 04:05:54;;;;;;;16.35;14.85;;;20.10;99.90;;;;;;4990049;28;20169;-42
2021/07/13 04:08:20;;;;;;;17.10;15.40;;;20.10;99.90;;;;;;4988336;28;20077;-42
2021/07/13 04:10:45;;;;;;;18.90;17.00;;;20.10;99.90;;;;;;4989586;28;20034;-43
2021/07/13 04:13:13;;;;;;;19.50;17.70;;;20.10;99.90;;;;;;4989412;28;20041;-43
2021/07/13 04:15:38;;;;;;;20.80;18.80;;;20.20;99.90;;;;;;4988601;28;20871;-42
2021/07/13 04:18:07;;;;;;;20.70;18.65;;;20.20;99.90;;;;;;4989217;28;20026;-43
2021/07/13 04:20:33;;;;;;;22.73;20.33;;;20.20;99.90;;;;;;4988721;28;20027;-43
2021/07/13 04:22:58;;;;;;;23.23;20.83;;;20.20;99.90;;;;;;4988816;28;20025;-41
2021/07/13 04:25:24;;;;;;;24.10;21.60;;;20.30;99.90;;;;;;4988713;28;20042;-42
2021/07/13 04:27:49;;;;;;;25.17;22.50;;;20.30;99.90;;;;;;4990265;28;20038;-41
2021/07/13 04:30:15;;;;;;;23.83;21.35;;;20.30;99.90;;;;;;4988986;28;20023;-43
2021/07/13 04:32:40;;;;;;;24.88;22.35;;;20.30;99.90;;;;;;4988483;28;20034;-42
2021/07/13 04:35:06;;;;;;;24.52;22.13;;;20.30;99.90;;;;;;4991305;28;20026;-41
2021/07/13 04:37:32;;;;;;;23.58;21.23;;;20.20;99.90;;;;;;4992471;28;20022;-42
2021/07/13 04:39:58;;;;;;;24.42;21.95;;;20.20;99.90;;;;;;4992927;28;20022;-43
2021/07/13 04:42:23;;;;;;;24.00;21.65;;;20.20;99.90;;;;;;4991725;28;20113;-44
2021/07/13 04:44:49;;;;;;;24.25;21.85;;;20.10;99.90;;;;;;4992667;28;20057;-42
2021/07/13 04:47:14;;;;;;;23.35;21.05;;;20.00;99.90;;;;;;4993367;28;20580;-42
2021/07/13 04:49:40;;;;;;;22.17;20.05;;;19.90;99.90;;;;;;4991925;28;20026;-43
2021/07/13 04:52:06;;;;;;;22.30;20.10;;;19.80;99.90;;;;;;4993244;28;20074;-43
2021/07/13 04:54:33;;;;;;;25.13;22.67;;;19.80;99.90;;;;;;4991459;28;20033;-41
2021/07/13 04:56:59;;;;;;;23.70;21.42;;;19.70;99.90;;;;;;4991680;28;20129;-42
2021/07/13 04:59:25;;;;;;;20.85;18.85;;;19.70;99.90;;;;;;4992223;28;20025;-42
2021/07/13 05:01:51;;;;;;;25.85;23.15;;;19.60;99.90;;;;;;4993354;28;20026;-42
2021/07/13 05:04:16;;;;;;;25.70;23.05;;;19.50;99.90;;;;;;4992389;28;20493;-41
2021/07/13 05:06:42;;;;;;;23.58;21.08;;;19.60;99.90;;;;;;4992193;28;20370;-42
2021/07/13 05:09:10;;;;;;;25.38;22.65;;;19.50;99.90;;;;;;4992224;28;20030;-42
2021/07/13 05:11:38;;;;;;;28.13;25.30;;;19.40;99.90;;;;;;4991358;28;20019;-43
2021/07/13 05:14:04;;;;;;;35.08;28.42;;;19.30;99.90;;;;;;4992748;28;20074;-40
2021/07/13 05:16:30;;;;;;;33.95;28.70;;;19.30;99.90;;;;;;4990797;28;20577;-42
2021/07/13 05:18:59;;;;;;;29.13;26.02;;;19.20;99.90;;;;;;4992549;28;20092;-44
2021/07/13 05:21:24;;;;;;;30.80;27.52;;;19.20;99.90;;;;;;4991581;28;20041;-41
2021/07/13 05:23:50;;;;;;;33.33;29.70;;;19.20;99.90;;;;;;4992475;28;20113;-43
2021/07/13 05:26:16;;;;;;;34.17;30.20;;;19.30;99.90;;;;;;4991499;28;20022;-43
2021/07/13 05:28:50;;;;;;;33.63;29.88;;;19.30;99.90;;;;;;4992429;28;20391;-43
2021/07/13 05:31:22;;;;;;;34.42;30.83;;;19.30;99.90;;;;;;4991839;28;20022;-43
2021/07/13 05:33:48;;;;;;;34.90;30.83;;;19.30;99.90;;;;;;4992401;28;20027;-42
2021/07/13 05:36:16;;;;;;;36.25;32.35;;;19.30;99.90;;;;;;4992345;28;20062;-43
2021/07/13 05:38:42;;;;;;;36.13;31.60;;;19.40;99.90;;;;;;4990971;28;20026;-43
2021/07/13 05:41:07;;;;;;;40.67;35.60;;;19.40;99.90;;;;;;4992104;28;20018;-43
2021/07/13 05:43:33;;;;;;;44.08;37.30;;;19.50;99.90;;;;;;4991966;28;20532;-43
2021/07/13 05:45:58;;;;;;;43.70;35.22;;;19.50;99.90;;;;;;4990458;28;20046;-43
2021/07/13 05:48:24;;;;;;;44.50;36.67;;;19.50;99.90;;;;;;4991478;28;20026;-42
2021/07/13 05:50:49;;;;;;;43.78;36.13;;;19.50;99.90;;;;;;4992406;28;20034;-45
2021/07/13 05:53:16;;;;;;;43.90;35.13;;;19.60;99.90;;;;;;4990961;28;20022;-45
2021/07/13 05:55:41;;;;;;;45.35;34.25;;;19.60;99.90;;;;;;4991006;28;20722;-43
2021/07/13 05:58:07;;;;;;;43.50;35.20;;;19.60;99.90;;;;;;4991926;28;20022;-43
2021/07/13 06:00:33;;;;;;;46.63;36.22;;;19.70;99.90;;;;;;4990861;28;20038;-43
2021/07/13 06:02:58;;;;;;;45.03;34.08;;;19.70;99.90;;;;;;4991672;28;20018;-46
2021/07/13 06:05:24;;;;;;;42.33;33.85;;;19.80;99.90;;;;;;4991009;28;20042;-44
2021/07/13 06:07:49;;;;;;;46.28;35.17;;;19.90;99.90;;;;;;4991245;28;20023;-43
2021/07/13 06:10:17;;;;;;;42.10;32.92;;;19.90;99.90;;;;;;4991253;28;20026;-40
2021/07/13 06:12:42;;;;;;;46.60;34.88;;;20.00;99.90;;;;;;4990715;28;20534;-43
2021/07/13 06:15:09;;;;;;;46.20;33.72;;;20.00;99.90;;;;;;4991248;28;20052;-43
2021/07/13 06:17:36;;;;;;;45.85;33.63;;;20.10;99.90;;;;;;4990401;28;20516;-42
2021/07/13 06:20:03;;;;;;;49.78;35.78;;;20.10;99.90;;;;;;4991294;28;20058;-44
2021/07/13 06:22:29;;;;;;;44.20;33.72;;;20.10;99.90;;;;;;4989329;28;20102;-44
2021/07/13 06:24:55;;;;;;;50.85;37.78;;;20.10;99.90;;;;;;4991407;28;20141;-43
2021/07/13 06:27:22;;;;;;;45.58;35.13;;;20.10;99.90;;;;;;4990705;28;20473;-44
2021/07/13 06:29:47;;;;;;;49.33;36.17;;;20.10;99.90;;;;;;4991041;28;20544;-45
2021/07/13 06:32:13;;;;;;;46.90;33.90;;;20.20;99.90;;;;;;4990958;28;20109;-46
2021/07/13 06:34:38;;;;;;;45.75;33.80;;;20.20;99.90;;;;;;4990111;28;20054;-42
2021/07/13 06:37:04;;;;;;;47.47;33.70;;;20.30;99.90;;;;;;4991429;28;20022;-42
2021/07/13 06:39:29;;;;;;;48.83;34.63;;;20.30;99.90;;;;;;4989735;28;20413;-42
2021/07/13 06:41:55;;;;;;;45.88;33.08;;;20.30;99.90;;;;;;4990456;28;20477;-44
2021/07/13 06:44:20;;;;;;;45.92;33.78;;;20.30;99.90;;;;;;4989779;28;20015;-43
2021/07/13 06:46:48;;;;;;;53.42;36.83;;;20.40;99.90;;;;;;4990299;28;20037;-42
2021/07/13 06:49:14;;;;;;;48.35;35.13;;;20.40;99.90;;;;;;4990209;28;20053;-43
2021/07/13 06:51:42;;;;;;;51.08;35.88;;;20.50;99.90;;;;;;4990260;28;20053;-44
2021/07/13 06:54:11;;;;;;;53.80;38.53;;;20.40;99.90;;;;;;4990759;28;20030;-45
2021/07/13 06:56:36;;;;;;;51.75;39.60;;;20.50;99.90;;;;;;4989486;28;20389;-44
2021/07/13 06:59:02;;;;;;;53.85;38.95;;;20.40;99.90;;;;;;4990066;28;20036;-44
2021/07/13 07:01:27;;;;;;;50.08;35.65;;;20.40;99.90;;;;;;4989601;28;20113;-42
2021/07/13 07:03:53;;;;;;;47.30;33.80;;;20.40;99.90;;;;;;4989908;28;20490;-42
2021/07/13 07:06:18;;;;;;;40.70;31.33;;;20.30;99.90;;;;;;4990086;28;20030;-42
2021/07/13 07:08:44;;;;;;;39.40;30.13;;;20.30;99.90;;;;;;4989866;28;20015;-41
2021/07/13 07:11:10;;;;;;;40.00;30.20;;;20.20;99.90;;;;;;4990032;28;20031;-44
2021/07/13 07:13:36;;;;;;;40.95;31.02;;;20.20;99.90;;;;;;4989123;28;20030;-43
2021/07/13 07:16:01;;;;;;;40.13;31.00;;;20.10;99.90;;;;;;4990349;28;20046;-43
2021/07/13 07:18:27;;;;;;;37.63;30.48;;;20.10;99.90;;;;;;4989020;28;20018;-43
2021/07/13 07:20:52;;;;;;;34.67;27.20;;;20.00;99.90;;;;;;4990236;28;20048;-44
2021/07/13 07:23:18;;;;;;;35.33;26.55;;;20.10;99.90;;;;;;4990171;28;20029;-43
2021/07/13 07:25:44;;;;;;;34.25;27.17;;;20.10;99.90;;;;;;4988012;28;20418;-44
2021/07/13 07:28:12;;;;;;;35.25;27.60;;;20.10;99.90;;;;;;4989658;28;20034;-44
2021/07/13 07:30:38;;;;;;;34.95;27.15;;;20.10;99.90;;;;;;4988200;28;20512;-44
2021/07/13 07:33:04;;;;;;;31.05;25.10;;;20.20;99.90;;;;;;4989796;28;20442;-44
2021/07/13 07:35:30;;;;;;;34.15;26.30;;;20.20;99.90;;;;;;4989272;28;20076;-43
2021/07/13 07:37:56;;;;;;;34.35;27.25;;;20.20;99.90;;;;;;4989756;28;20053;-42
2021/07/13 07:40:22;;;;;;;33.55;27.40;;;20.30;99.90;;;;;;4989267;28;20030;-43
2021/07/13 07:42:50;;;;;;;37.63;29.98;;;20.30;99.90;;;;;;4990856;28;21093;-44
2021/07/13 07:45:17;;;;;;;37.30;29.88;;;20.30;99.90;;;;;;4988924;28;20045;-43
2021/07/13 07:47:43;;;;;;;35.42;29.67;;;20.30;99.90;;;;;;4988226;28;20014;-43
2021/07/13 07:50:09;;;;;;;35.58;27.75;;;20.30;99.90;;;;;;4989792;28;20110;-43
2021/07/13 07:52:35;;;;;;;32.42;26.92;;;20.30;99.90;;;;;;4989392;28;20019;-43
2021/07/13 07:55:02;;;;;;;35.42;29.10;;;20.30;99.90;;;;;;4990081;28;20026;-42
2021/07/13 07:57:28;;;;;;;37.15;27.98;;;20.40;99.90;;;;;;4978794;28;20015;-44
2021/07/13 07:59:53;;;;;;;37.40;29.80;;;20.40;99.90;;;;;;4989637;28;20118;-44
2021/07/13 08:02:20;;;;;;;40.10;28.33;;;20.40;99.90;;;;;;4989478;28;20101;-41
2021/07/13 08:04:45;;;;;;;33.33;26.02;;;20.40;99.90;;;;;;4989915;28;20474;-44
2021/07/13 08:07:11;;;;;;;34.35;26.80;;;20.40;99.90;;;;;;4989482;28;20094;-42
2021/07/13 08:09:37;;;;;;;33.35;26.27;;;20.40;99.90;;;;;;4991458;28;20092;-43
2021/07/13 08:12:03;;;;;;;34.50;28.25;;;20.50;99.90;;;;;;4993926;28;20025;-42
2021/07/13 08:14:28;;;;;;;31.83;25.65;;;20.50;99.90;;;;;;4992050;28;20126;-43
2021/07/13 08:16:55;;;;;;;29.90;23.85;;;20.50;99.90;;;;;;4993638;28;20124;-42
2021/07/13 08:19:20;;;;;;;27.40;22.63;;;20.50;99.90;;;;;;4993762;28;20023;-44
2021/07/13 08:21:46;;;;;;;28.63;23.25;;;20.50;99.90;;;;;;4992522;28;20061;-44
2021/07/13 08:24:12;;;;;;;28.02;23.10;;;20.50;99.90;;;;;;4993529;28;20040;-43
2021/07/13 08:26:42;;;;;;;32.95;25.85;;;20.60;99.90;;;;;;4993113;28;20532;-45
2021/07/13 08:29:07;;;;;;;27.90;23.30;;;20.60;99.90;;;;;;4993351;28;20019;-44
2021/07/13 08:31:33;;;;;;;26.45;22.10;;;20.60;99.90;;;;;;4992609;28;20489;-43
2021/07/13 08:33:59;;;;;;;26.13;21.65;;;20.60;99.90;;;;;;4993829;28;20369;-43
2021/07/13 08:36:24;;;;;;;27.98;23.48;;;20.60;99.90;;;;;;4992061;28;20426;-44
2021/07/13 08:38:50;;;;;;;25.30;21.85;;;20.60;99.90;;;;;;4982653;28;20694;-43
2021/07/13 08:41:20;;;;;;;25.23;22.08;;;20.60;99.90;;;;;;4992552;28;20034;-46
2021/07/13 08:43:46;;;;;;;23.30;20.70;;;20.60;99.90;;;;;;4993367;28;20049;-44
2021/07/13 08:46:12;;;;;;;23.10;20.02;;;20.70;99.90;;;;;;4993219;28;20038;-42
2021/07/13 08:48:40;;;;;;;22.65;20.20;;;20.70;99.90;;;;;;4990129;28;20019;-44
2021/07/13 08:51:06;;;;;;;22.35;18.98;;;20.90;99.90;;;;;;4993364;28;20033;-43
2021/07/13 08:53:33;;;;;;;22.90;19.08;;;20.90;99.90;;;;;;4992109;28;20025;-45
2021/07/13 08:55:58;;;;;;;23.02;20.08;;;21.00;99.90;;;;;;4992692;28;20534;-45
2021/07/13 08:58:25;;;;;;;23.60;20.98;;;21.10;99.90;;;;;;4992330;28;20103;-45
2021/07/13 09:00:51;;;;;;;21.52;19.23;;;21.10;99.90;;;;;;4991204;28;20092;-41
2021/07/13 09:03:19;;;;;;;21.17;18.23;;;21.20;99.90;;;;;;4991907;28;20025;-44
2021/07/13 09:05:49;;;;;;;20.23;17.80;;;21.30;99.90;;;;;;4992714;28;20092;-42
2021/07/13 09:08:25;;;;;;;20.42;18.23;;;21.40;99.90;;;;;;4993075;28;20034;-42
2021/07/13 09:11:12;;;;;;;22.13;19.35;;;21.50;99.90;;;;;;4992038;28;20513;-44
2021/07/13 09:13:42;;;;;;;21.13;18.02;;;21.70;99.90;;;;;;4991379;28;20051;-42
2021/07/13 09:16:34;;;;;;;19.70;17.05;;;21.80;99.90;;;;;;4993181;28;20510;-41
2021/07/13 09:19:00;;;;;;;18.20;16.20;;;22.00;99.90;;;;;;4988860;28;20123;-42
2021/07/13 09:21:35;;;;;;;19.73;17.65;;;22.10;99.90;;;;;;4992023;28;20038;-44
2021/07/13 09:24:22;;;;;;;18.55;16.55;;;22.30;99.90;;;;;;4992196;28;20022;-43
2021/07/13 09:26:56;;;;;;;19.63;17.48;;;22.40;99.90;;;;;;4972574;28;20483;-43
2021/07/13 09:29:52;;;;;;;19.50;17.45;;;22.50;99.90;;;;;;4987869;28;20022;-42
2021/07/13 09:32:28;;;;;;;20.27;17.67;;;22.60;99.90;;;;;;4972684;28;20505;-43
2021/07/13 09:35:03;;;;;;;18.42;16.58;;;22.60;99.90;;;;;;4990634;28;20806;-42
2021/07/13 09:37:36;;;;;;;20.92;18.50;;;22.70;99.90;;;;;;4991496;28;20088;-43
2021/07/13 09:40:12;;;;;;;18.42;16.52;;;22.70;99.90;;;;;;4992131;28;20026;-41
2021/07/13 09:42:49;;;;;;;22.10;19.70;;;22.60;99.90;;;;;;4991495;28;20081;-41
2021/07/13 09:45:33;;;;;;;20.88;18.67;;;22.50;99.90;;;;;;4991458;28;20070;-42
2021/07/13 09:48:13;;;;;;;21.13;18.83;;;22.50;99.90;;;;;;4992715;28;20117;-43
2021/07/13 09:50:51;;;;;;;19.52;17.42;;;22.50;99.90;;;;;;4989555;28;20026;-43
2021/07/13 09:53:22;;;;;;;22.05;18.88;;;22.50;99.90;;;;;;4992086;28;20045;-43
2021/07/13 09:55:49;;;;;;;19.67;17.35;;;22.50;99.90;;;;;;4992019;28;20027;-43
2021/07/13 09:58:23;;;;;;;21.70;19.33;;;22.50;99.90;;;;;;4992046;28;20413;-40
2021/07/13 10:00:54;;;;;;;19.13;17.13;;;22.50;99.90;;;;;;4989876;28;20022;-41
2021/07/13 10:03:22;;;;;;;19.45;17.40;;;22.50;99.90;;;;;;4991035;28;20474;-42
2021/07/13 10:05:50;;;;;;;18.88;16.92;;;22.50;99.90;;;;;;4991000;28;20034;-42
2021/07/13 10:08:19;;;;;;;18.60;16.58;;;22.40;99.90;;;;;;4991881;28;20399;-41
2021/07/13 10:10:47;;;;;;;18.25;16.35;;;22.50;99.90;;;;;;4991462;28;20014;-42
2021/07/13 10:13:14;;;;;;;17.35;15.25;;;22.60;99.90;;;;;;4990974;28;20046;-43
2021/07/13 10:15:41;;;;;;;15.82;14.27;;;22.70;99.90;;;;;;4990413;28;20042;-43
2021/07/13 10:18:07;;;;;;;17.75;15.82;;;22.70;99.90;;;;;;4992384;28;20030;-41
2021/07/13 10:20:35;;;;;;;19.00;16.20;;;22.80;99.90;;;;;;4990205;28;20126;-42
2021/07/13 10:23:04;;;;;;;18.98;16.98;;;22.80;99.90;;;;;;4991752;28;20081;-42
2021/07/13 10:25:39;;;;;;;17.63;15.82;;;22.90;99.90;;;;;;4990506;28;20072;-42
2021/07/13 10:28:05;;;;;;;17.90;16.10;;;22.90;99.90;;;;;;4991228;28;20092;-43
2021/07/13 10:30:31;;;;;;;15.68;14.07;;;22.80;99.90;;;;;;4990375;28;20425;-41
2021/07/13 10:32:57;;;;;;;17.08;15.32;;;22.90;99.90;;;;;;4991284;28;20481;-44
2021/07/13 10:35:25;;;;;;;16.67;14.85;;;22.90;99.90;;;;;;4989938;28;20018;-44
2021/07/13 10:38:21;;;;;;;16.70;14.90;;;22.90;99.90;;;;;;4980652;28;20478;-43
2021/07/13 10:40:48;;;;;;;15.85;14.15;;;22.90;99.90;;;;;;4990302;28;20026;-45
2021/07/13 10:43:23;;;;;;;18.35;15.90;;;22.90;99.90;;;;;;4991712;28;20014;-44
2021/07/13 10:46:10;;;;;;;17.88;16.08;;;22.90;99.90;;;;;;4991074;28;20035;-45
2021/07/13 10:48:38;;;;;;;18.75;15.55;;;22.80;99.90;;;;;;4989946;28;20038;-45
2021/07/13 10:51:08;;;;;;;17.05;15.35;;;22.70;99.90;;;;;;4990506;28;20025;-42
2021/07/13 10:53:38;;;;;;;17.33;15.57;;;22.70;99.90;;;;;;4990795;28;20433;-43
2021/07/13 10:56:11;;;;;;;15.45;13.85;;;22.60;99.90;;;;;;4990122;28;20022;-45
2021/07/13 10:58:38;;;;;;;15.90;14.30;;;22.60;99.90;;;;;;4978824;28;20045;-43
2021/07/13 11:01:20;;;;;;;14.98;13.38;;;22.60;99.90;;;;;;4990935;28;20089;-43
2021/07/13 11:03:46;;;;;;;15.48;13.80;;;22.50;99.90;;;;;;4979547;28;20482;-45
2021/07/13 11:06:17;;;;;;;16.42;14.73;;;22.50;99.90;;;;;;4990871;28;20038;-44
2021/07/13 11:08:49;;;;;;;16.38;14.77;;;22.50;99.90;;;;;;4990070;28;20425;-43
2021/07/13 11:11:15;;;;;;;15.10;13.68;;;22.70;99.90;;;;;;4990882;28;20034;-40
2021/07/13 11:13:42;;;;;;;15.43;13.93;;;22.90;99.90;;;;;;4989539;28;20398;-42
2021/07/13 11:16:08;;;;;;;17.33;15.63;;;23.10;99.90;;;;;;4989806;28;20022;-42
2021/07/13 11:18:36;;;;;;;15.80;14.20;;;23.20;99.90;;;;;;4989714;28;20389;-42
2021/07/13 11:21:18;;;;;;;16.73;14.80;;;23.30;99.90;;;;;;4990826;28;20033;-42
2021/07/13 11:23:45;;;;;;;16.75;14.15;;;23.50;99.90;;;;;;4988636;28;20034;-42
2021/07/13 11:26:12;;;;;;;15.05;13.55;;;23.50;99.90;;;;;;4990386;28;20034;-42
2021/07/13 11:28:43;;;;;;;15.57;13.98;;;23.50;99.90;;;;;;4989373;28;20431;-42
2021/07/13 11:31:09;;;;;;;15.90;14.23;;;23.60;99.90;;;;;;4990066;28;20061;-42
2021/07/13 11:33:35;;;;;;;17.10;15.32;;;23.60;99.90;;;;;;4989347;28;20474;-43
2021/07/13 11:36:01;;;;;;;16.70;15.00;;;23.60;99.90;;;;;;4990288;28;20026;-44
2021/07/13 11:38:32;;;;;;;20.27;16.35;;;23.50;99.90;;;;;;4989115;28;20092;-44
2021/07/13 11:41:11;;;;;;;15.73;14.13;;;23.50;99.90;;;;;;4989662;28;20072;-43
2021/07/13 11:43:38;;;;;;;14.43;13.02;;;23.50;99.90;;;;;;4988459;28;20030;-44
2021/07/13 11:46:14;;;;;;;15.52;14.00;;;23.40;99.90;;;;;;4988766;28;20042;-43
2021/07/13 11:48:41;;;;;;;17.63;15.82;;;23.50;99.90;;;;;;4988593;28;20031;-44
2021/07/13 11:51:09;;;;;;;16.02;14.43;;;23.50;99.90;;;;;;4989508;28;20022;-40
2021/07/13 11:53:34;;;;;;;16.85;15.25;;;23.60;99.90;;;;;;4989494;28;20038;-44
2021/07/13 11:56:02;;;;;;;18.70;16.83;;;23.60;99.90;;;;;;4989897;28;20027;-43
2021/07/13 11:58:29;;;;;;;17.55;15.80;;;23.70;99.90;;;;;;4988890;28;20026;-44
2021/07/13 12:01:18;;;;;;;17.83;16.13;;;23.60;99.90;;;;;;4990667;28;20435;-44
2021/07/13 12:03:44;;;;;;;18.23;16.42;;;23.60;99.90;;;;;;4989009;28;20037;-44
2021/07/13 12:06:14;;;;;;;20.05;18.05;;;23.50;99.90;;;;;;4988940;28;20026;-43
2021/07/13 12:08:40;;;;;;;19.60;17.60;;;23.50;99.90;;;;;;4989531;28;20461;-44
2021/07/13 12:11:07;;;;;;;18.80;16.90;;;23.50;99.90;;;;;;4989823;28;20034;-44
2021/07/13 12:13:32;;;;;;;19.33;17.42;;;23.60;99.90;;;;;;4988624;28;20056;-42
2021/07/13 12:16:18;;;;;;;18.15;16.35;;;23.60;99.90;;;;;;4989595;28;20113;-44
2021/07/13 12:18:47;;;;;;;18.13;16.23;;;23.70;99.90;;;;;;4988950;28;20105;-44
2021/07/13 12:21:16;;;;;;;18.83;16.92;;;23.80;99.90;;;;;;4989461;28;20022;-43
2021/07/13 12:23:45;;;;;;;18.77;16.77;;;23.90;99.90;;;;;;4989184;28;20516;-44
2021/07/13 12:26:24;;;;;;;20.45;18.35;;;24.00;99.90;;;;;;4989339;28;20049;-44
2021/07/13 12:29:08;;;;;;;20.73;18.70;;;24.20;99.90;;;;;;4989165;28;20034;-44
2021/07/13 12:31:36;;;;;;;19.63;17.63;;;24.20;99.90;;;;;;4989258;28;20022;-45
2021/07/13 12:34:04;;;;;;;23.13;20.60;;;24.30;99.90;;;;;;4989207;28;20022;-44
2021/07/13 12:36:32;;;;;;;21.15;18.90;;;24.30;99.90;;;;;;4989070;28;20022;-45